createdAt,value
2023-03-07T00:01:38.777Z,7.34
2023-03-07T00:04:05.820Z,7.47
2023-03-07T00:06:33.103Z,7.18
2023-03-07T00:09:08.397Z,7.46
2023-03-07T00:11:35.487Z,7.32
2023-03-07T00:14:02.830Z,7.22
2023-03-07T00:16:29.996Z,6.99
2023-03-07T00:18:58.061Z,6.78
2023-03-07T00:21:27.662Z,7.40
2023-03-07T00:23:54.746Z,7.60
2023-03-07T00:26:23.246Z,7.14
2023-03-07T00:28:51.795Z,7.08
2023-03-07T00:31:22.551Z,7.33
2023-03-07T00:33:49.647Z,7.16
2023-03-07T00:36:22.020Z,7.12
2023-03-07T00:41:54.366Z,7.04
2023-03-07T00:44:23.513Z,6.58
2023-03-07T00:49:45.978Z,6.14
2023-03-07T00:52:33.796Z,6.76
2023-03-07T00:55:01.234Z,7.11
2023-03-07T01:03:38.036Z,7.88
2023-03-07T01:06:07.875Z,8.08
2023-03-07T01:08:35.696Z,7.83
2023-03-07T01:13:51.832Z,8.00
2023-03-07T01:16:24.098Z,7.79
2023-03-07T01:22:33.419Z,7.75
2023-03-07T01:25:01.048Z,7.20
2023-03-07T01:27:29.522Z,7.67
2023-03-07T01:33:03.497Z,8.52
2023-03-07T01:35:31.532Z,8.31
2023-03-07T01:55:18.925Z,7.88
2023-03-07T02:03:50.290Z,8.50
2023-03-07T02:06:18.619Z,8.10
2023-03-07T02:20:57.963Z,7.69
2023-03-07T02:23:51.471Z,7.30
2023-03-07T02:31:34.468Z,7.31
2023-03-07T02:36:43.543Z,6.76
2023-03-07T02:56:03.355Z,7.43
2023-03-07T03:01:19.234Z,7.28
2023-03-07T03:06:35.216Z,6.71
2023-03-07T03:12:19.369Z,6.92
2023-03-07T03:17:41.786Z,6.81
2023-03-07T03:34:00.297Z,7.15
2023-03-07T03:45:35.897Z,8.03
2023-03-07T04:37:25.094Z,6.63
2023-03-07T04:48:43.893Z,6.54
2023-03-07T06:20:41.897Z,7.14
2023-03-07T06:23:08.816Z,6.76
2023-03-07T06:25:35.756Z,6.75
2023-03-07T06:28:02.693Z,6.79
2023-03-07T06:30:29.669Z,6.94
2023-03-07T06:32:56.616Z,7.60
2023-03-07T06:35:23.498Z,7.47
2023-03-07T06:37:51.358Z,7.58
2023-03-07T06:40:18.405Z,7.21
2023-03-07T06:42:45.275Z,7.18
2023-03-07T06:45:12.069Z,7.36
2023-03-07T06:47:38.982Z,7.38
2023-03-07T06:50:06.432Z,7.65
2023-03-07T06:52:33.278Z,7.97
2023-03-07T06:55:01.311Z,8.08
2023-03-07T06:57:28.030Z,8.10
2023-03-07T06:59:55.000Z,7.99
2023-03-07T07:02:22.021Z,8.01
2023-03-07T07:04:48.999Z,8.04
2023-03-07T07:07:15.880Z,8.61
2023-03-07T07:09:42.802Z,8.38
2023-03-07T07:12:11.965Z,8.40
2023-03-07T07:14:38.800Z,8.38
2023-03-07T07:17:05.633Z,8.24
2023-03-07T07:19:32.563Z,8.13
2023-03-07T07:21:59.429Z,8.16
2023-03-07T07:24:26.190Z,8.57
2023-03-07T07:26:53.340Z,8.73
2023-03-07T07:29:21.102Z,8.63
2023-03-07T07:31:49.832Z,8.52
2023-03-07T07:34:16.972Z,8.87
2023-03-07T07:36:43.838Z,8.81
2023-03-07T07:39:10.746Z,9.08
2023-03-07T07:41:37.639Z,8.64
2023-03-07T07:44:04.623Z,8.96
2023-03-07T07:46:31.469Z,8.85
2023-03-07T07:48:58.193Z,9.13
2023-03-07T07:51:25.024Z,9.02
2023-03-07T07:53:51.768Z,8.54
2023-03-07T07:56:18.680Z,8.30
2023-03-07T07:58:45.592Z,8.67
2023-03-07T08:01:19.692Z,8.35
2023-03-07T08:03:47.086Z,8.07
2023-03-07T08:06:19.864Z,8.30
2023-03-07T08:08:48.288Z,7.94
2023-03-07T08:11:19.516Z,7.73
2023-03-07T08:13:49.763Z,7.99
2023-03-07T08:16:19.425Z,8.20
2023-03-07T08:18:53.537Z,8.26
2023-03-07T08:21:21.447Z,8.20
2023-03-07T08:23:48.614Z,7.90
2023-03-07T08:26:15.623Z,7.54
2023-03-07T08:28:42.695Z,7.96
2023-03-07T08:31:11.603Z,7.49
2023-03-07T08:33:39.277Z,8.35
2023-03-07T08:36:06.947Z,8.46
2023-03-07T08:38:34.133Z,8.59
2023-03-07T08:41:06.034Z,8.64
2023-03-07T08:43:33.935Z,8.48
2023-03-07T08:46:00.934Z,8.69
2023-03-07T08:48:28.375Z,8.86
2023-03-07T08:50:55.711Z,8.82
2023-03-07T08:53:23.037Z,8.94
2023-03-07T08:55:50.090Z,8.29
2023-03-07T08:58:17.000Z,8.40
2023-03-07T09:00:43.896Z,8.01
2023-03-07T09:03:10.816Z,8.38
2023-03-07T09:05:40.917Z,8.13
2023-03-07T09:08:08.890Z,7.99
2023-03-07T09:10:35.803Z,8.06
2023-03-07T09:13:02.678Z,8.44
2023-03-07T09:15:29.632Z,8.33
2023-03-07T09:17:56.602Z,8.21
2023-03-07T09:20:23.571Z,8.01
2023-03-07T09:22:51.860Z,7.65
2023-03-07T09:25:19.046Z,7.55
2023-03-07T09:27:45.992Z,7.47
2023-03-07T09:30:14.190Z,7.45
2023-03-07T09:32:41.106Z,7.48
2023-03-07T09:35:08.604Z,7.36
2023-03-07T09:37:35.573Z,7.49
2023-03-07T09:40:07.408Z,7.61
2023-03-07T09:43:13.707Z,7.57
2023-03-07T09:45:55.948Z,7.32
2023-03-07T09:48:36.676Z,7.88
2023-03-07T09:51:12.220Z,7.87
2023-03-07T09:53:50.001Z,7.60
2023-03-07T09:56:38.656Z,7.27
2023-03-07T09:59:23.961Z,7.75
2023-03-07T10:02:13.999Z,7.57
2023-03-07T10:05:08.707Z,6.96
2023-03-07T10:07:36.377Z,6.96
2023-03-07T10:10:11.161Z,7.14
2023-03-07T10:13:34.360Z,7.19
2023-03-07T10:16:05.751Z,6.51
2023-03-07T10:19:13.970Z,7.06
2023-03-07T10:22:06.065Z,6.60
2023-03-07T10:24:37.088Z,6.10
2023-03-07T10:27:09.887Z,6.18
2023-03-07T10:29:42.161Z,6.36
2023-03-07T10:32:41.089Z,6.19
2023-03-07T10:35:25.003Z,6.09
2023-03-07T10:37:54.490Z,6.49
2023-03-07T10:40:30.584Z,6.32
2023-03-07T10:42:58.892Z,6.57
2023-03-07T10:45:29.566Z,6.48
2023-03-07T10:48:00.191Z,6.16
2023-03-07T10:50:52.668Z,6.38
2023-03-07T10:53:28.050Z,6.35
2023-03-07T10:56:13.317Z,6.59
2023-03-07T10:58:41.580Z,5.77
2023-03-07T11:01:08.500Z,5.80
2023-03-07T11:03:55.817Z,5.91
2023-03-07T11:06:34.559Z,5.56
2023-03-07T11:09:18.722Z,5.71
2023-03-07T11:11:51.773Z,6.02
2023-03-07T11:14:19.168Z,6.23
2023-03-07T11:17:13.317Z,5.85
2023-03-07T11:19:45.505Z,5.89
2023-03-07T11:22:39.124Z,6.00
2023-03-07T11:25:23.580Z,6.02
2023-03-07T11:27:54.620Z,5.58
2023-03-07T11:30:35.714Z,5.26
2023-03-07T11:33:17.466Z,5.36
2023-03-07T11:35:56.913Z,5.56
2023-03-07T11:38:37.266Z,5.96
2023-03-07T11:41:19.169Z,5.44
2023-03-07T11:44:10.899Z,5.50
2023-03-07T11:46:41.138Z,5.61
2023-03-07T11:49:30.544Z,5.21
2023-03-07T11:52:04.750Z,5.75
2023-03-07T11:55:09.828Z,5.25
2023-03-07T11:57:58.739Z,5.51
2023-03-07T12:00:25.597Z,5.33
2023-03-07T12:03:04.676Z,5.54
2023-03-07T12:05:54.535Z,5.62
2023-03-07T12:08:45.895Z,4.89
2023-03-07T12:11:19.158Z,5.10
2023-03-07T12:13:54.752Z,5.29
2023-03-07T12:16:33.484Z,5.09
2023-03-07T12:19:20.988Z,5.22
2023-03-07T12:22:14.208Z,5.08
2023-03-07T12:24:55.989Z,5.23
2023-03-07T12:27:34.523Z,5.69
2023-03-07T12:30:14.621Z,5.54
2023-03-07T12:32:41.886Z,5.45
2023-03-07T12:35:15.246Z,5.68
2023-03-07T12:37:51.881Z,5.40
2023-03-07T12:40:22.239Z,5.67
2023-03-07T12:42:57.929Z,5.46
2023-03-07T12:45:27.912Z,5.54
2023-03-07T12:47:55.283Z,5.03
2023-03-07T12:50:38.067Z,5.23
2023-03-07T12:53:36.143Z,5.31
2023-03-07T12:56:10.280Z,4.69
2023-03-07T12:58:45.094Z,4.85
2023-03-07T13:01:35.299Z,5.08
2023-03-07T13:04:28.677Z,4.68
2023-03-07T13:07:02.336Z,5.10
2023-03-07T13:09:32.476Z,5.03
2023-03-07T13:12:20.196Z,4.61
2023-03-07T13:15:07.986Z,4.75
2023-03-07T13:17:38.358Z,4.77
2023-03-07T13:20:20.040Z,4.92
2023-03-07T13:22:46.850Z,5.12
2023-03-07T13:25:19.955Z,5.14
2023-03-07T13:28:00.295Z,5.44
2023-03-07T13:30:31.433Z,5.61
2023-03-07T13:33:03.395Z,5.45
2023-03-07T13:35:35.752Z,5.97
2023-03-07T13:38:13.455Z,5.73
2023-03-07T13:40:49.199Z,5.55
2023-03-07T13:43:19.288Z,5.86
2023-03-07T13:46:06.053Z,5.69
2023-03-07T13:48:32.873Z,5.89
2023-03-07T13:50:59.513Z,6.38
2023-03-07T13:53:32.025Z,6.12
2023-03-07T13:56:17.170Z,6.00
2023-03-07T13:59:04.238Z,6.78
2023-03-07T14:01:42.997Z,6.52
2023-03-07T14:04:39.497Z,6.68
2023-03-07T14:07:32.544Z,6.11
2023-03-07T14:10:19.566Z,6.21
2023-03-07T14:13:05.366Z,6.24
2023-03-07T14:15:50.809Z,6.72
2023-03-07T14:18:20.447Z,6.60
2023-03-07T14:21:07.138Z,6.56
2023-03-07T14:24:08.444Z,5.97
2023-03-07T14:26:40.048Z,6.12
2023-03-07T14:29:18.007Z,6.28
2023-03-07T14:31:45.650Z,6.28
2023-03-07T14:34:27.313Z,5.84
2023-03-07T14:37:04.556Z,6.08
2023-03-07T14:39:59.594Z,6.16
2023-03-07T14:42:31.645Z,6.00
2023-03-07T14:45:27.629Z,6.01
2023-03-07T14:48:33.608Z,6.05
2023-03-07T14:51:06.121Z,6.22
2023-03-07T14:53:34.804Z,6.24
2023-03-07T14:56:01.902Z,6.48
2023-03-07T14:58:32.725Z,6.51
2023-03-07T15:01:11.028Z,6.84
2023-03-07T15:03:51.934Z,6.78
2023-03-07T15:06:21.896Z,6.72
2023-03-07T15:08:49.496Z,6.63
2023-03-07T15:11:37.136Z,6.56
2023-03-07T15:14:05.420Z,6.44
2023-03-07T15:16:37.838Z,6.41
2023-03-07T15:19:32.246Z,6.64
2023-03-07T15:22:05.066Z,6.28
2023-03-07T15:24:39.728Z,6.54
2023-03-07T15:27:10.630Z,6.35
2023-03-07T15:29:39.398Z,6.19
2023-03-07T15:32:07.850Z,5.93
2023-03-07T15:34:39.450Z,5.78
2023-03-07T15:37:27.394Z,6.01
2023-03-07T15:40:14.864Z,5.59
2023-03-07T15:43:17.805Z,5.71
2023-03-07T15:45:46.545Z,5.76
2023-03-07T15:48:38.997Z,5.90
2023-03-07T15:51:15.246Z,5.48
2023-03-07T15:53:43.309Z,5.79
2023-03-07T15:56:41.544Z,5.93
2023-03-07T15:59:18.620Z,5.78
2023-03-07T16:01:45.541Z,6.00
2023-03-07T16:04:37.540Z,5.55
2023-03-07T16:33:13.443Z,5.77
2023-03-07T16:46:29.575Z,5.95
2023-03-07T16:48:56.656Z,6.18
2023-03-07T16:51:26.320Z,6.35
2023-03-07T16:53:53.187Z,6.04
2023-03-07T16:56:30.134Z,6.36
2023-03-07T16:58:57.676Z,5.98
2023-03-07T17:01:25.034Z,6.16
2023-03-07T17:07:22.996Z,5.85
2023-03-07T17:09:50.497Z,5.90
2023-03-07T17:12:18.805Z,5.66
2023-03-07T17:14:46.751Z,5.37
2023-03-07T17:17:30.698Z,5.85
2023-03-07T17:20:06.253Z,5.61
2023-03-07T17:22:35.891Z,5.60
2023-03-07T17:25:05.234Z,6.08
2023-03-07T17:27:33.597Z,6.43
2023-03-07T17:30:00.738Z,6.06
2023-03-07T17:32:27.738Z,6.31
2023-03-07T17:34:56.125Z,6.25
2023-03-07T17:37:23.581Z,6.54
2023-03-07T17:39:52.077Z,6.41
2023-03-07T17:42:19.757Z,6.44
2023-03-07T17:44:47.505Z,6.42
2023-03-07T17:47:14.974Z,6.88
2023-03-07T17:49:42.159Z,6.89
2023-03-07T17:52:09.485Z,6.77
2023-03-07T17:54:37.520Z,7.18
2023-03-07T17:57:08.199Z,7.25
2023-03-07T17:59:35.422Z,7.08
2023-03-07T18:02:02.614Z,7.40
2023-03-07T18:04:31.743Z,7.39
2023-03-07T18:06:59.599Z,7.11
2023-03-07T18:09:26.759Z,7.28
2023-03-07T18:11:53.917Z,7.18
2023-03-07T18:14:20.944Z,7.09
2023-03-07T18:16:48.787Z,7.20
2023-03-07T18:19:25.750Z,7.15
2023-03-07T18:21:53.339Z,7.28
2023-03-07T18:24:30.291Z,7.04
2023-03-07T18:26:59.397Z,7.07
2023-03-07T18:29:28.037Z,6.85
2023-03-07T18:31:54.901Z,6.84
2023-03-07T18:34:21.768Z,7.10
2023-03-07T18:36:51.786Z,6.04
2023-03-07T18:39:20.224Z,6.50
2023-03-07T18:41:48.700Z,6.34
2023-03-07T18:44:18.454Z,6.49
2023-03-07T18:46:45.938Z,6.40
2023-03-07T18:49:12.994Z,6.46
2023-03-07T18:51:40.421Z,6.21
2023-03-07T18:54:09.126Z,5.98
2023-03-07T18:56:36.156Z,6.07
2023-03-07T18:59:03.585Z,6.54
2023-03-07T19:01:33.048Z,6.70
2023-03-07T19:04:03.411Z,6.39
2023-03-07T19:06:34.663Z,6.68
2023-03-07T19:09:03.675Z,6.83
2023-03-07T19:11:31.041Z,6.64
2023-03-07T19:13:58.113Z,6.23
2023-03-07T19:16:27.014Z,5.96
2023-03-07T19:18:54.984Z,6.42
2023-03-07T19:21:24.799Z,6.32
2023-03-07T19:23:53.135Z,6.41
2023-03-07T19:26:20.924Z,6.45
2023-03-07T19:28:49.955Z,6.35
2023-03-07T19:31:18.976Z,6.72
2023-03-07T19:33:46.858Z,6.62
2023-03-07T19:36:16.062Z,6.71
2023-03-07T19:38:43.378Z,6.42
2023-03-07T19:41:13.670Z,6.40
2023-03-07T19:43:40.779Z,6.54
2023-03-07T19:46:09.593Z,6.28
2023-03-07T19:48:38.824Z,5.34
2023-03-07T19:51:18.659Z,4.92
2023-03-07T19:53:46.021Z,4.73
2023-03-07T19:56:16.163Z,5.20
2023-03-07T19:58:43.070Z,5.17
2023-03-07T20:01:11.712Z,5.65
2023-03-07T20:03:38.980Z,5.30
2023-03-07T20:06:07.807Z,5.51
2023-03-07T20:08:35.157Z,5.42
2023-03-07T20:11:16.233Z,5.44
2023-03-07T20:13:45.752Z,4.59
2023-03-07T20:16:13.664Z,4.75
2023-03-07T20:18:43.760Z,4.73
2023-03-07T20:21:12.907Z,4.33
2023-03-07T20:23:40.103Z,4.40
2023-03-07T20:26:12.436Z,4.97
2023-03-07T20:28:39.443Z,5.80
2023-03-07T20:31:09.572Z,5.62
2023-03-07T20:33:40.700Z,5.70
2023-03-07T20:36:08.887Z,5.83
2023-03-07T20:38:37.116Z,5.79
2023-03-07T20:41:09.027Z,5.53
2023-03-07T20:43:35.999Z,5.47
2023-03-07T20:46:06.485Z,5.41
2023-03-07T20:48:34.267Z,5.61
2023-03-07T20:51:16.274Z,5.92
2023-03-07T20:53:43.185Z,5.98
2023-03-07T20:56:10.103Z,6.46
2023-03-07T20:58:37.162Z,6.09
2023-03-07T21:01:04.373Z,5.99
2023-03-07T21:03:31.333Z,6.05
2023-03-07T21:06:00.529Z,5.90
2023-03-07T21:08:29.240Z,5.75
2023-03-07T21:10:59.810Z,5.86
2023-03-07T21:13:27.653Z,5.89
2023-03-07T21:15:59.798Z,5.88
2023-03-07T21:18:27.655Z,5.21
2023-03-07T21:20:54.576Z,5.27
2023-03-07T21:23:21.499Z,5.28
2023-03-07T21:25:48.449Z,5.04
2023-03-07T21:28:15.287Z,5.47
2023-03-07T21:30:42.049Z,5.80
2023-03-07T21:33:10.953Z,6.08
2023-03-07T21:35:38.956Z,6.02
2023-03-07T21:38:06.450Z,6.44
2023-03-07T21:40:33.795Z,6.32
2023-03-07T21:43:00.731Z,6.41
2023-03-07T21:45:27.652Z,6.69
2023-03-07T21:47:54.614Z,6.24
2023-03-07T21:50:21.563Z,6.60
2023-03-07T21:52:49.006Z,6.74
2023-03-07T21:55:16.642Z,6.64
2023-03-07T21:57:43.719Z,6.94
2023-03-07T22:00:14.240Z,6.94
2023-03-07T22:02:41.116Z,6.61
2023-03-07T22:05:08.373Z,6.61
2023-03-07T22:07:35.443Z,6.38
2023-03-07T22:10:02.882Z,6.62
2023-03-07T22:12:32.390Z,6.58
2023-03-07T22:14:59.681Z,6.53
2023-03-07T22:17:27.404Z,6.55
2023-03-07T22:19:54.420Z,6.43
2023-03-07T22:22:21.301Z,6.63
2023-03-07T22:24:51.696Z,6.33
2023-03-07T22:27:19.205Z,5.74
2023-03-07T22:29:46.051Z,5.80
2023-03-07T22:32:12.779Z,5.97
2023-03-07T22:34:39.686Z,6.23
2023-03-07T22:37:07.390Z,5.87
2023-03-07T22:39:34.480Z,6.42
2023-03-07T22:42:01.418Z,6.84
2023-03-07T22:44:28.434Z,6.73
2023-03-07T22:46:56.401Z,7.14
2023-03-07T22:49:23.306Z,6.95
2023-03-07T22:51:50.204Z,7.06
2023-03-07T22:54:17.152Z,6.93
2023-03-07T22:56:44.181Z,6.61
2023-03-07T22:59:11.539Z,6.46
2023-03-07T23:01:38.545Z,6.52
2023-03-07T23:04:07.897Z,6.66
2023-03-07T23:06:36.417Z,6.83
2023-03-07T23:09:05.025Z,6.60
2023-03-07T23:11:33.068Z,6.60
2023-03-07T23:14:00.511Z,6.27
2023-03-07T23:16:29.719Z,6.34
2023-03-07T23:18:58.792Z,6.09
2023-03-07T23:21:29.016Z,6.13
2023-03-07T23:23:56.425Z,5.86
2023-03-07T23:26:26.054Z,6.20
2023-03-07T23:28:53.075Z,6.26
2023-03-07T23:31:22.420Z,6.19
2023-03-07T23:33:49.916Z,5.99
2023-03-07T23:36:17.513Z,6.02
2023-03-07T23:38:46.440Z,5.98
2023-03-07T23:41:14.042Z,5.89
2023-03-07T23:43:40.980Z,5.60
2023-03-07T23:46:07.955Z,5.77
2023-03-07T23:48:34.983Z,5.44
2023-03-07T23:51:01.935Z,5.20
2023-03-07T23:53:28.837Z,5.39
2023-03-07T23:55:55.747Z,5.30
2023-03-07T23:58:22.656Z,5.36
